createdAt,value
2022-08-07T00:19:05.604Z,52.48
2022-08-07T00:39:09.386Z,51.84
2022-08-07T00:59:35.678Z,51.89
2022-08-07T01:19:41.886Z,52.01
2022-08-07T01:39:47.195Z,51.72
2022-08-07T01:59:59.819Z,52.09
2022-08-07T02:20:09.565Z,52.12
2022-08-07T02:40:34.936Z,52.32
2022-08-07T03:00:41.007Z,51.57
2022-08-07T03:20:51.113Z,52.66
2022-08-07T03:40:57.780Z,53.30
2022-08-07T04:01:04.067Z,54.04
2022-08-07T04:21:12.732Z,54.86
2022-08-07T04:41:20.235Z,54.17
2022-08-07T05:02:09.140Z,55.09
2022-08-07T05:22:27.645Z,53.79
2022-08-07T05:42:34.436Z,52.78
2022-08-07T06:02:40.885Z,51.85
2022-08-07T06:23:01.856Z,50.40
2022-08-07T06:43:21.277Z,48.60
2022-08-07T07:03:48.972Z,47.79
2022-08-07T07:24:08.445Z,45.24
2022-08-07T07:44:21.463Z,45.78
2022-08-07T08:25:18.945Z,42.94
2022-08-07T08:45:59.532Z,40.55
2022-08-07T09:06:11.915Z,38.31
2022-08-07T09:26:17.211Z,33.66
2022-08-07T09:47:51.091Z,34.07
2022-08-07T10:07:31.762Z,31.52
2022-08-07T10:28:02.526Z,30.93
2022-08-07T10:48:09.719Z,32.22
2022-08-07T11:08:35.599Z,31.61
2022-08-07T11:28:55.416Z,31.88
2022-08-07T11:49:51.228Z,32.30
2022-08-07T12:10:05.910Z,32.09
2022-08-07T12:30:11.746Z,31.99
2022-08-07T12:50:40.380Z,32.17
2022-08-07T13:11:23.900Z,30.49
2022-08-07T13:31:54.989Z,30.27
2022-08-07T13:52:22.598Z,30.64
2022-08-07T14:12:54.010Z,28.78
2022-08-07T14:33:01.799Z,29.97
2022-08-07T14:53:09.809Z,30.45
2022-08-07T15:13:18.958Z,29.27
2022-08-07T15:33:22.691Z,30.15
2022-08-07T15:53:52.918Z,30.91
2022-08-07T16:14:17.170Z,31.91
2022-08-07T16:34:41.916Z,31.13
2022-08-07T16:55:21.691Z,32.52
2022-08-07T17:15:51.596Z,33.39
2022-08-07T17:36:20.505Z,33.85
2022-08-07T17:56:35.097Z,34.42
2022-08-07T18:17:00.474Z,34.93
2022-08-07T18:38:57.223Z,35.45
2022-08-07T18:58:15.720Z,35.71
2022-08-07T19:18:35.017Z,32.66
2022-08-07T19:38:53.115Z,32.76
2022-08-07T19:58:58.714Z,32.97
2022-08-07T20:19:05.006Z,34.01
2022-08-07T20:39:30.540Z,34.87
2022-08-07T21:00:06.501Z,35.80
2022-08-07T21:20:04.384Z,35.28
2022-08-07T21:40:13.902Z,36.75
2022-08-07T22:00:22.997Z,35.76
2022-08-07T22:20:49.342Z,36.87
2022-08-07T22:41:03.834Z,37.19
2022-08-07T23:01:50.687Z,37.87
2022-08-07T23:21:54.635Z,38.30
2022-08-07T23:42:36.363Z,38.91
